createdAt,value
2023-04-30T00:00:28.465Z,100708.06
2023-04-30T00:02:55.772Z,100703.81
2023-04-30T00:05:22.941Z,100704.50
2023-04-30T00:07:49.817Z,100703.41
2023-04-30T00:10:16.734Z,100703.81
2023-04-30T00:12:43.617Z,100704.13
2023-04-30T00:15:11.638Z,100705.63
2023-04-30T00:17:38.735Z,100708.22
2023-04-30T00:20:07.161Z,100705.91
2023-04-30T00:22:34.230Z,100711.50
2023-04-30T00:25:01.526Z,100715.75
2023-04-30T00:27:28.494Z,100711.22
2023-04-30T00:29:55.649Z,100704.94
2023-04-30T00:32:23.029Z,100708.91
2023-04-30T00:34:50.091Z,100715.63
2023-04-30T00:37:19.400Z,100714.09
2023-04-30T00:39:46.370Z,100705.06
2023-04-30T00:42:13.263Z,100703.44
2023-04-30T00:44:40.307Z,100703.16
2023-04-30T00:47:08.514Z,100701.09
2023-04-30T00:49:35.547Z,100705.63
2023-04-30T00:52:02.622Z,100708.66
2023-04-30T00:54:29.598Z,100709.47
2023-04-30T00:56:56.763Z,100698.75
2023-04-30T00:59:24.588Z,100698.22
2023-04-30T01:01:52.395Z,100703.44
2023-04-30T01:04:19.857Z,100698.75
2023-04-30T01:06:46.812Z,100691.09
2023-04-30T01:09:13.939Z,100697.13
2023-04-30T01:12:14.670Z,100686.72
2023-04-30T01:15:00.002Z,100691.38
2023-04-30T01:17:50.529Z,100699.47
2023-04-30T01:20:18.294Z,100699.84
2023-04-30T01:23:02.363Z,100698.50
2023-04-30T01:26:16.239Z,100691.66
2023-04-30T01:28:46.210Z,100689.16
2023-04-30T01:31:19.636Z,100699.06
2023-04-30T01:33:46.911Z,100695.75
2023-04-30T01:36:21.809Z,100698.50
2023-04-30T01:39:07.061Z,100696.28
2023-04-30T01:41:44.013Z,100692.47
2023-04-30T01:44:44.104Z,100689.31
2023-04-30T01:47:41.373Z,100696.16
2023-04-30T01:50:23.430Z,100697.66
2023-04-30T01:52:57.354Z,100696.69
2023-04-30T01:55:30.069Z,100698.34
2023-04-30T01:58:00.398Z,100692.75
2023-04-30T02:00:30.748Z,100693.41
2023-04-30T02:02:58.964Z,100697.41
2023-04-30T02:05:26.382Z,100693.56
2023-04-30T02:07:53.924Z,100694.66
2023-04-30T02:10:23.738Z,100695.50
2023-04-30T02:12:50.789Z,100698.22
2023-04-30T02:15:17.763Z,100694.53
2023-04-30T02:17:44.930Z,100687.81
2023-04-30T02:20:12.183Z,100686.84
2023-04-30T02:22:39.467Z,100693.69
2023-04-30T02:25:06.864Z,100690.28
2023-04-30T02:27:34.373Z,100692.59
2023-04-30T02:30:01.573Z,100690.53
2023-04-30T02:32:28.621Z,100695.19
2023-04-30T02:34:55.788Z,100685.06
2023-04-30T02:37:22.869Z,100683.69
2023-04-30T02:39:49.810Z,100690.25
2023-04-30T02:42:16.724Z,100684.25
2023-04-30T02:44:43.703Z,100687.25
2023-04-30T02:47:10.975Z,100691.09
2023-04-30T02:49:37.948Z,100687.00
2023-04-30T02:52:05.068Z,100683.16
2023-04-30T02:54:32.039Z,100694.38
2023-04-30T02:56:58.934Z,100700.41
2023-04-30T02:59:25.974Z,100700.25
2023-04-30T03:01:52.953Z,100698.88
2023-04-30T03:04:19.970Z,100694.94
2023-04-30T03:06:46.884Z,100705.88
2023-04-30T03:09:13.826Z,100699.72
2023-04-30T03:11:40.714Z,100691.50
2023-04-30T03:14:07.739Z,100694.38
2023-04-30T03:16:34.695Z,100700.91
2023-04-30T03:19:01.598Z,100700.94
2023-04-30T03:21:28.488Z,100696.00
2023-04-30T03:23:55.558Z,100698.31
2023-04-30T03:26:22.504Z,100685.47
2023-04-30T03:28:49.605Z,100688.88
2023-04-30T03:31:16.983Z,100689.69
2023-04-30T03:33:43.984Z,100683.28
2023-04-30T03:36:11.001Z,100686.41
2023-04-30T03:38:37.985Z,100683.13
2023-04-30T03:41:05.159Z,100684.50
2023-04-30T03:43:32.055Z,100674.38
2023-04-30T03:45:59.001Z,100679.84
2023-04-30T03:48:25.933Z,100681.19
2023-04-30T03:50:52.839Z,100682.56
2023-04-30T03:53:19.844Z,100668.34
2023-04-30T03:55:48.238Z,100674.34
2023-04-30T03:58:15.372Z,100675.47
2023-04-30T04:00:42.370Z,100669.69
2023-04-30T04:03:09.281Z,100677.66
2023-04-30T04:05:36.209Z,100672.03
2023-04-30T04:08:03.174Z,100686.78
2023-04-30T04:10:30.294Z,100683.34
2023-04-30T04:12:57.418Z,100681.88
2023-04-30T04:15:24.316Z,100685.78
2023-04-30T04:17:51.506Z,100685.78
2023-04-30T04:20:18.785Z,100688.25
2023-04-30T04:22:45.769Z,100690.22
2023-04-30T04:25:13.986Z,100685.16
2023-04-30T04:27:41.215Z,100697.44
2023-04-30T04:30:08.906Z,100693.06
2023-04-30T04:32:42.410Z,100703.44
2023-04-30T04:35:09.508Z,100692.38
2023-04-30T04:37:36.485Z,100688.00
2023-04-30T04:40:05.187Z,100693.22
2023-04-30T04:42:32.550Z,100688.84
2023-04-30T04:44:59.430Z,100696.25
2023-04-30T04:47:27.138Z,100699.13
2023-04-30T04:49:54.385Z,100700.72
2023-04-30T04:52:21.449Z,100698.16
2023-04-30T04:54:48.874Z,100695.00
2023-04-30T04:57:15.940Z,100702.53
2023-04-30T04:59:42.837Z,100697.50
2023-04-30T05:02:10.170Z,100702.03
2023-04-30T05:04:37.346Z,100702.56
2023-04-30T05:07:04.367Z,100697.91
2023-04-30T05:09:31.345Z,100700.81
2023-04-30T05:11:59.600Z,100704.09
2023-04-30T05:14:28.127Z,100696.03
2023-04-30T05:16:55.907Z,100690.81
2023-04-30T05:19:23.001Z,100697.25
2023-04-30T05:21:49.975Z,100692.72
2023-04-30T05:24:17.632Z,100692.88
2023-04-30T05:26:44.638Z,100699.88
2023-04-30T05:29:12.125Z,100694.66
2023-04-30T05:31:39.212Z,100701.25
2023-04-30T05:34:07.790Z,100693.53
2023-04-30T05:36:34.817Z,100700.41
2023-04-30T05:39:01.818Z,100688.91
2023-04-30T05:41:28.808Z,100698.63
2023-04-30T05:43:55.902Z,100695.19
2023-04-30T05:46:23.103Z,100702.34
2023-04-30T05:48:50.436Z,100693.25
2023-04-30T05:51:17.466Z,100701.75
2023-04-30T05:53:44.494Z,100686.22
2023-04-30T05:56:12.500Z,100689.53
2023-04-30T05:58:40.097Z,100691.56
2023-04-30T06:01:10.130Z,100695.81
2023-04-30T06:03:38.383Z,100690.47
2023-04-30T06:06:05.594Z,100695.94
2023-04-30T06:08:32.530Z,100692.59
2023-04-30T06:10:59.578Z,100698.06
2023-04-30T06:13:26.679Z,100687.19
2023-04-30T06:15:53.733Z,100692.06
2023-04-30T06:18:20.676Z,100679.47
2023-04-30T06:20:47.565Z,100670.56
2023-04-30T06:23:16.267Z,100675.16
2023-04-30T06:25:43.360Z,100678.75
2023-04-30T06:28:10.345Z,100678.97
2023-04-30T06:30:38.815Z,100689.25
2023-04-30T06:33:05.951Z,100691.19
2023-04-30T06:35:35.605Z,100683.81
2023-04-30T06:38:02.467Z,100685.09
2023-04-30T06:40:29.681Z,100684.06
2023-04-30T06:42:59.117Z,100679.72
2023-04-30T06:45:27.003Z,100674.94
2023-04-30T06:47:53.990Z,100675.72
2023-04-30T06:50:21.955Z,100675.41
2023-04-30T06:52:49.041Z,100676.06
2023-04-30T06:55:15.993Z,100681.41
2023-04-30T06:57:43.845Z,100674.19
2023-04-30T07:00:19.466Z,100678.47
2023-04-30T07:02:52.950Z,100670.66
2023-04-30T07:05:21.985Z,100672.44
2023-04-30T07:07:51.217Z,100675.81
2023-04-30T07:10:20.381Z,100669.91
2023-04-30T07:12:49.630Z,100676.16
2023-04-30T07:15:16.993Z,100673.91
2023-04-30T07:17:52.086Z,100664.19
2023-04-30T07:20:19.258Z,100670.38
2023-04-30T07:22:46.436Z,100675.50
2023-04-30T07:25:14.231Z,100659.50
2023-04-30T07:27:41.601Z,100643.97
2023-04-30T07:30:12.472Z,100649.38
2023-04-30T07:32:41.640Z,100641.81
2023-04-30T07:35:09.790Z,100639.06
2023-04-30T07:37:37.200Z,100646.91
2023-04-30T07:40:07.665Z,100637.56
2023-04-30T07:42:34.982Z,100631.03
2023-04-30T07:45:03.618Z,100625.47
2023-04-30T07:47:31.234Z,100638.09
2023-04-30T07:49:58.437Z,100625.09
2023-04-30T07:52:25.412Z,100620.53
2023-04-30T07:54:52.402Z,100623.50
2023-04-30T07:57:19.391Z,100632.34
2023-04-30T07:59:46.402Z,100620.22
2023-04-30T08:02:13.769Z,100614.28
2023-04-30T08:04:40.958Z,100606.47
2023-04-30T08:07:08.206Z,100608.03
2023-04-30T08:09:35.092Z,100615.88
2023-04-30T08:12:02.078Z,100632.66
2023-04-30T08:14:29.061Z,100624.75
2023-04-30T08:16:56.023Z,100622.47
2023-04-30T08:19:23.140Z,100628.00
2023-04-30T08:21:50.079Z,100625.03
2023-04-30T08:24:17.059Z,100637.47
2023-04-30T08:26:45.079Z,100645.41
2023-04-30T08:29:12.116Z,100643.75
2023-04-30T08:31:39.208Z,100637.03
2023-04-30T08:34:06.735Z,100633.28
2023-04-30T08:36:33.840Z,100647.91
2023-04-30T08:39:02.073Z,100638.66
2023-04-30T08:41:36.134Z,100634.75
2023-04-30T08:44:05.721Z,100631.66
2023-04-30T08:46:37.032Z,100631.00
2023-04-30T08:49:04.090Z,100622.53
2023-04-30T08:51:32.964Z,100626.72
2023-04-30T08:53:59.896Z,100623.13
2023-04-30T08:56:26.954Z,100620.84
2023-04-30T08:58:53.870Z,100613.31
2023-04-30T09:01:21.290Z,100623.50
2023-04-30T09:03:48.435Z,100616.69
2023-04-30T09:06:19.308Z,100623.63
2023-04-30T09:08:50.601Z,100634.91
2023-04-30T09:11:24.780Z,100599.31
2023-04-30T09:13:58.240Z,100606.88
2023-04-30T09:16:27.171Z,100614.03
2023-04-30T09:18:54.439Z,100597.38
2023-04-30T09:21:36.175Z,100592.38
2023-04-30T09:24:05.687Z,100589.31
2023-04-30T09:26:36.657Z,100597.28
2023-04-30T09:29:08.665Z,100599.06
2023-04-30T09:31:41.621Z,100613.22
2023-04-30T09:34:08.685Z,100600.69
2023-04-30T09:36:35.903Z,100601.09
2023-04-30T09:39:14.736Z,100581.78
2023-04-30T09:41:43.156Z,100567.03
2023-04-30T09:44:32.070Z,100563.59
2023-04-30T09:47:00.130Z,100565.91
2023-04-30T09:49:27.759Z,100563.97
2023-04-30T09:52:00.955Z,100570.84
2023-04-30T09:54:32.295Z,100576.41
2023-04-30T09:57:02.258Z,100585.41
2023-04-30T09:59:39.511Z,100581.72
2023-04-30T10:02:08.318Z,100583.72
2023-04-30T10:04:49.382Z,100577.66
2023-04-30T10:07:22.243Z,100567.63
2023-04-30T10:09:59.707Z,100557.84
2023-04-30T10:12:38.931Z,100543.88
2023-04-30T10:15:16.760Z,100543.38
2023-04-30T10:17:55.175Z,100543.91
2023-04-30T10:20:23.142Z,100524.75
2023-04-30T10:22:50.236Z,100508.72
2023-04-30T10:25:17.590Z,100494.63
2023-04-30T10:27:45.512Z,100486.78
2023-04-30T10:30:13.587Z,100490.50
2023-04-30T10:33:28.367Z,100495.81
2023-04-30T10:36:04.855Z,100491.41
2023-04-30T10:38:33.233Z,100488.19
2023-04-30T10:41:02.188Z,100504.78
2023-04-30T10:43:33.169Z,100524.28
2023-04-30T10:46:02.461Z,100524.41
2023-04-30T10:48:31.210Z,100517.69
2023-04-30T10:50:59.886Z,100522.06
2023-04-30T10:53:31.913Z,100516.84
2023-04-30T10:56:07.353Z,100527.00
2023-04-30T10:58:37.166Z,100533.41
2023-04-30T11:01:14.747Z,100525.66
2023-04-30T11:03:43.993Z,100527.81
2023-04-30T11:06:20.122Z,100508.31
2023-04-30T11:08:47.252Z,100519.59
2023-04-30T11:11:21.351Z,100515.66
2023-04-30T11:14:00.610Z,100508.81
2023-04-30T11:16:31.625Z,100515.34
2023-04-30T11:19:16.225Z,100502.38
2023-04-30T11:22:03.400Z,100498.19
2023-04-30T11:24:55.309Z,100510.16
2023-04-30T11:27:34.198Z,100515.50
2023-04-30T11:30:05.322Z,100508.53
2023-04-30T11:32:35.249Z,100505.25
2023-04-30T11:35:04.505Z,100487.75
2023-04-30T11:37:36.308Z,100493.31
2023-04-30T11:40:07.763Z,100513.63
2023-04-30T11:42:35.559Z,100507.28
2023-04-30T11:45:13.833Z,100520.88
2023-04-30T11:47:46.379Z,100490.50
2023-04-30T11:50:17.051Z,100480.41
2023-04-30T11:52:51.387Z,100491.41
2023-04-30T11:55:20.746Z,100494.03
2023-04-30T11:57:50.482Z,100478.63
2023-04-30T12:00:20.771Z,100494.59
2023-04-30T12:02:49.818Z,100494.22
2023-04-30T12:05:28.158Z,100486.88
2023-04-30T12:08:09.643Z,100494.66
2023-04-30T12:10:36.701Z,100486.16
2023-04-30T12:13:03.893Z,100503.47
2023-04-30T12:15:30.854Z,100503.38
2023-04-30T12:17:59.921Z,100499.22
2023-04-30T12:20:29.348Z,100477.72
2023-04-30T12:22:57.790Z,100471.38
2023-04-30T12:25:25.070Z,100480.00
2023-04-30T12:27:53.764Z,100489.22
2023-04-30T12:30:24.893Z,100483.63
2023-04-30T12:32:54.680Z,100478.19
2023-04-30T12:35:23.772Z,100488.50
2023-04-30T12:38:02.272Z,100472.19
2023-04-30T12:40:29.194Z,100476.19
2023-04-30T12:43:08.160Z,100486.31
2023-04-30T12:45:55.769Z,100486.88
2023-04-30T12:48:24.769Z,100483.06
2023-04-30T12:51:01.110Z,100460.84
2023-04-30T12:53:29.691Z,100457.53
2023-04-30T12:56:18.078Z,100460.19
2023-04-30T12:58:49.560Z,100443.69
2023-04-30T13:01:24.453Z,100432.13
2023-04-30T13:03:53.508Z,100428.00
2023-04-30T13:06:23.467Z,100422.69
2023-04-30T13:11:24.813Z,100412.47
2023-04-30T13:13:51.778Z,100421.50
2023-04-30T13:16:18.791Z,100413.91
2023-04-30T13:18:45.967Z,100403.47
2023-04-30T13:21:13.494Z,100408.19
2023-04-30T13:23:49.086Z,100396.34
2023-04-30T13:26:19.508Z,100371.97
2023-04-30T13:28:46.394Z,100372.44
2023-04-30T13:31:13.344Z,100381.78
2023-04-30T13:33:40.448Z,100377.56
2023-04-30T13:36:07.787Z,100379.41
2023-04-30T13:38:34.813Z,100359.44
2023-04-30T13:41:01.796Z,100358.34
2023-04-30T13:43:29.248Z,100364.16
2023-04-30T13:45:56.488Z,100367.44
2023-04-30T13:48:23.542Z,100364.97
2023-04-30T13:50:52.112Z,100369.50
2023-04-30T13:53:19.123Z,100352.94
2023-04-30T13:55:46.156Z,100353.44
2023-04-30T13:58:13.867Z,100346.88
2023-04-30T14:00:41.229Z,100341.28
2023-04-30T14:03:08.672Z,100339.84
2023-04-30T14:05:36.682Z,100360.09
2023-04-30T14:08:04.474Z,100350.19
2023-04-30T14:10:32.196Z,100344.63
2023-04-30T14:12:59.255Z,100346.97
2023-04-30T14:15:27.603Z,100335.16
2023-04-30T14:17:54.547Z,100336.59
2023-04-30T14:20:21.690Z,100340.00
2023-04-30T14:22:48.609Z,100348.25
2023-04-30T14:25:15.593Z,100351.91
2023-04-30T14:27:42.655Z,100364.66
2023-04-30T14:30:10.347Z,100365.63
2023-04-30T14:32:37.705Z,100362.69
2023-04-30T14:35:05.521Z,100369.81
2023-04-30T14:37:32.703Z,100359.84
2023-04-30T14:40:01.843Z,100352.41
2023-04-30T14:42:29.129Z,100340.94
2023-04-30T14:44:56.035Z,100341.84
2023-04-30T14:47:27.208Z,100324.25
2023-04-30T14:49:54.812Z,100320.09
2023-04-30T14:52:22.380Z,100318.47
2023-04-30T14:54:49.387Z,100312.69
2023-04-30T14:57:18.591Z,100300.38
2023-04-30T14:59:45.516Z,100304.19
2023-04-30T15:02:12.700Z,100298.75
2023-04-30T15:04:39.737Z,100285.94
2023-04-30T15:07:06.683Z,100279.44
2023-04-30T15:09:33.549Z,100289.03
2023-04-30T15:12:01.563Z,100283.09
2023-04-30T15:14:28.517Z,100295.00
2023-04-30T15:16:55.496Z,100274.97
2023-04-30T15:19:22.690Z,100270.13
2023-04-30T15:21:49.581Z,100277.00
2023-04-30T15:24:17.917Z,100281.31
2023-04-30T15:26:45.149Z,100274.72
2023-04-30T15:29:12.123Z,100273.31
2023-04-30T15:31:39.165Z,100278.13
2023-04-30T15:34:06.100Z,100279.44
2023-04-30T15:36:33.304Z,100289.06
2023-04-30T15:39:00.219Z,100274.41
2023-04-30T15:41:27.231Z,100270.41
2023-04-30T15:43:54.117Z,100268.13
2023-04-30T15:46:21.133Z,100250.78
2023-04-30T15:48:48.018Z,100261.19
2023-04-30T15:51:14.943Z,100258.75
2023-04-30T15:53:41.941Z,100270.00
2023-04-30T15:56:09.683Z,100264.53
2023-04-30T15:58:36.840Z,100272.91
2023-04-30T16:01:03.818Z,100266.66
2023-04-30T16:03:31.580Z,100270.38
2023-04-30T16:06:00.975Z,100259.97
2023-04-30T16:08:28.509Z,100252.94
2023-04-30T16:10:55.536Z,100255.00
2023-04-30T16:13:22.468Z,100261.63
2023-04-30T16:15:49.631Z,100252.03
2023-04-30T16:18:16.971Z,100257.50
2023-04-30T16:20:47.240Z,100267.03
2023-04-30T16:23:14.776Z,100266.31
2023-04-30T16:25:42.003Z,100254.31
2023-04-30T16:28:08.929Z,100255.88
2023-04-30T16:30:36.030Z,100247.78
2023-04-30T16:33:03.114Z,100243.16
2023-04-30T16:35:30.156Z,100241.94
2023-04-30T16:37:57.084Z,100236.22
2023-04-30T16:40:24.089Z,100245.03
2023-04-30T16:42:50.991Z,100261.34
2023-04-30T16:45:17.942Z,100257.72
2023-04-30T16:47:45.655Z,100260.16
2023-04-30T16:50:12.665Z,100273.03
2023-04-30T16:52:39.570Z,100268.66
2023-04-30T16:55:07.133Z,100261.41
2023-04-30T16:57:34.179Z,100273.94
2023-04-30T17:00:01.049Z,100274.72
2023-04-30T17:02:28.045Z,100263.88
2023-04-30T17:04:54.992Z,100260.66
2023-04-30T17:07:21.974Z,100250.06
2023-04-30T17:09:48.978Z,100250.44
2023-04-30T17:12:16.188Z,100251.84
2023-04-30T17:14:43.319Z,100260.28
2023-04-30T17:17:10.234Z,100252.38
2023-04-30T17:19:37.177Z,100253.78
2023-04-30T17:22:04.146Z,100261.00
2023-04-30T17:24:31.110Z,100261.94
2023-04-30T17:26:59.345Z,100275.50
2023-04-30T17:29:26.286Z,100281.34
2023-04-30T17:31:53.276Z,100282.97
2023-04-30T17:34:20.681Z,100289.41
2023-04-30T17:36:48.909Z,100295.28
2023-04-30T17:39:16.985Z,100304.31
2023-04-30T17:41:43.976Z,100307.13
2023-04-30T17:44:11.725Z,100298.47
2023-04-30T17:46:39.573Z,100303.44
2023-04-30T17:49:06.804Z,100303.59
2023-04-30T17:51:33.936Z,100310.09
2023-04-30T17:54:00.862Z,100310.38
2023-04-30T17:56:32.256Z,100326.78
2023-04-30T17:59:00.862Z,100328.22
2023-04-30T18:01:27.921Z,100322.97
2023-04-30T18:03:55.349Z,100316.91
2023-04-30T18:06:22.476Z,100319.16
2023-04-30T18:08:49.491Z,100321.22
2023-04-30T18:11:16.632Z,100332.00
2023-04-30T18:13:43.695Z,100333.38
2023-04-30T18:16:10.765Z,100332.38
2023-04-30T18:18:37.790Z,100341.06
2023-04-30T18:21:04.997Z,100346.03
2023-04-30T18:23:32.015Z,100350.88
2023-04-30T18:25:59.086Z,100354.84
2023-04-30T18:28:25.945Z,100355.75
2023-04-30T18:30:52.880Z,100364.22
2023-04-30T18:33:19.838Z,100358.31
2023-04-30T18:35:50.462Z,100361.31
2023-04-30T18:38:18.438Z,100363.50
2023-04-30T18:40:45.521Z,100352.94
2023-04-30T18:43:13.994Z,100352.47
2023-04-30T18:45:41.143Z,100345.44
2023-04-30T18:48:08.259Z,100350.00
2023-04-30T18:50:35.229Z,100343.47
2023-04-30T18:53:02.210Z,100338.22
2023-04-30T18:55:29.114Z,100354.09
2023-04-30T18:57:56.527Z,100360.50
2023-04-30T19:00:23.570Z,100369.22
2023-04-30T19:02:51.499Z,100351.03
2023-04-30T19:05:19.214Z,100345.78
2023-04-30T19:07:46.368Z,100342.88
2023-04-30T19:10:13.453Z,100352.19
2023-04-30T19:12:41.391Z,100359.44
2023-04-30T19:15:11.541Z,100357.06
2023-04-30T19:17:39.662Z,100353.50
2023-04-30T19:20:07.457Z,100354.50
2023-04-30T19:22:35.847Z,100357.47
2023-04-30T19:25:02.954Z,100360.22
2023-04-30T19:27:29.866Z,100365.31
2023-04-30T19:29:59.911Z,100375.44
2023-04-30T19:32:27.263Z,100378.69
2023-04-30T19:34:54.460Z,100385.25
2023-04-30T19:37:21.731Z,100376.59
2023-04-30T19:39:48.707Z,100382.16
2023-04-30T19:42:16.311Z,100380.69
2023-04-30T19:44:43.279Z,100385.59
2023-04-30T19:47:10.229Z,100389.16
2023-04-30T19:49:37.178Z,100389.34
2023-04-30T19:52:04.589Z,100387.22
2023-04-30T19:54:31.635Z,100391.81
2023-04-30T19:56:58.867Z,100392.75
2023-04-30T19:59:27.632Z,100392.94
2023-04-30T20:01:54.597Z,100398.16
2023-04-30T20:04:21.585Z,100401.25
2023-04-30T20:06:51.827Z,100398.31
2023-04-30T20:09:18.790Z,100396.84
2023-04-30T20:11:49.418Z,100401.88
2023-04-30T20:14:16.480Z,100401.69
2023-04-30T20:16:43.493Z,100396.28
2023-04-30T20:19:10.830Z,100397.41
2023-04-30T20:21:37.921Z,100395.25
2023-04-30T20:24:05.458Z,100396.16
2023-04-30T20:26:32.680Z,100399.34
2023-04-30T20:29:01.026Z,100401.16
2023-04-30T20:31:32.675Z,100409.81
2023-04-30T20:33:59.731Z,100415.03
2023-04-30T20:36:29.715Z,100408.69
2023-04-30T20:38:56.661Z,100405.34
2023-04-30T20:41:28.502Z,100401.81
2023-04-30T20:43:55.492Z,100389.59
2023-04-30T20:46:24.389Z,100388.44
2023-04-30T20:48:53.633Z,100394.78
2023-04-30T20:51:20.534Z,100389.34
2023-04-30T20:53:47.532Z,100375.75
2023-04-30T20:56:14.493Z,100379.28
2023-04-30T20:58:42.964Z,100372.78
2023-04-30T21:01:09.940Z,100359.72
2023-04-30T21:03:37.093Z,100356.78
2023-04-30T21:06:05.215Z,100350.44
2023-04-30T21:08:32.733Z,100354.22
2023-04-30T21:10:59.608Z,100358.00
2023-04-30T21:13:26.647Z,100358.19
2023-04-30T21:15:55.016Z,100351.31
2023-04-30T21:18:22.156Z,100351.72
2023-04-30T21:20:49.169Z,100353.72
2023-04-30T21:23:16.133Z,100356.75
2023-04-30T21:25:43.010Z,100358.78
2023-04-30T21:28:09.993Z,100364.38
2023-04-30T21:30:37.304Z,100373.00
2023-04-30T21:33:04.735Z,100361.72
2023-04-30T21:35:33.100Z,100362.56
2023-04-30T21:38:00.362Z,100368.00
2023-04-30T21:40:27.330Z,100365.84
2023-04-30T21:42:54.724Z,100356.31
2023-04-30T21:45:21.726Z,100358.53
2023-04-30T21:47:49.008Z,100362.03
2023-04-30T21:50:16.337Z,100369.56
2023-04-30T21:52:43.300Z,100357.28
2023-04-30T21:55:10.356Z,100350.38
2023-04-30T21:57:37.225Z,100354.59
2023-04-30T22:00:06.465Z,100346.94
2023-04-30T22:02:33.464Z,100338.66
2023-04-30T22:05:00.926Z,100363.34
2023-04-30T22:07:28.048Z,100362.34
2023-04-30T22:09:55.370Z,100357.16
2023-04-30T22:12:25.032Z,100353.22
2023-04-30T22:14:55.387Z,100348.47
2023-04-30T22:17:22.715Z,100350.91
2023-04-30T22:19:49.786Z,100335.47
2023-04-30T22:22:16.829Z,100327.66
2023-04-30T22:24:43.759Z,100321.41
2023-04-30T22:27:10.646Z,100333.72
2023-04-30T22:29:37.681Z,100345.69
2023-04-30T22:32:06.314Z,100340.50
2023-04-30T22:34:41.214Z,100329.97
2023-04-30T22:37:12.184Z,100324.75
2023-04-30T22:39:39.352Z,100318.28
2023-04-30T22:42:06.493Z,100326.69
2023-04-30T22:44:34.436Z,100319.00
2023-04-30T22:47:02.726Z,100323.88
2023-04-30T22:49:31.958Z,100330.06
2023-04-30T22:51:59.975Z,100312.13
2023-04-30T22:54:27.052Z,100312.88
2023-04-30T22:56:53.957Z,100311.38
2023-04-30T22:59:20.915Z,100311.78
2023-04-30T23:01:48.089Z,100314.66
2023-04-30T23:04:15.092Z,100298.69
2023-04-30T23:06:43.004Z,100300.91
2023-04-30T23:09:10.204Z,100304.75
2023-04-30T23:11:37.188Z,100296.31
2023-04-30T23:14:04.698Z,100292.47
2023-04-30T23:16:31.727Z,100284.19
2023-04-30T23:18:58.801Z,100294.34
2023-04-30T23:21:25.697Z,100287.06
2023-04-30T23:23:52.714Z,100284.66
2023-04-30T23:26:19.605Z,100279.59
2023-04-30T23:28:46.642Z,100265.97
2023-04-30T23:31:13.572Z,100271.84
2023-04-30T23:33:40.611Z,100277.72
2023-04-30T23:36:07.633Z,100279.16
2023-04-30T23:38:34.521Z,100276.28
2023-04-30T23:41:03.081Z,100273.66
2023-04-30T23:43:31.448Z,100277.63
2023-04-30T23:45:59.340Z,100264.53
2023-04-30T23:48:26.428Z,100264.69
2023-04-30T23:51:05.318Z,100261.78
2023-04-30T23:53:32.432Z,100256.53
2023-04-30T23:55:59.584Z,100251.28
2023-04-30T23:58:30.035Z,100256.47
